Time;durP1;ratioP1;P1;durP2;ratioP2;P2;SDS_P1;SDS_P2;PMS_P1;PMS_P2;Temp;Humidity;BMP_temperature;BMP_pressure;BME280_temperature;BME280_humidity;BME280_pressure;Samples;Min_cycle;Max_cycle;Signal;HPM_P1;HPM_P2
2023/01/21 00:02:09;;;;;;;;;;;;;;;-0.69;68.09;100902.97;5050435;28;20411;-67
2023/01/21 00:04:36;;;;;;;;;;;;;;;-0.70;67.82;100895.91;5069585;28;19974;-65
2023/01/21 00:07:03;;;;;;;;;;;;;;;-0.73;67.92;100902.47;5065127;28;20031;-65
2023/01/21 00:09:28;;;;;;;;;;;;;;;-0.76;67.52;100905.50;5046702;28;19928;-66
2023/01/21 00:11:56;;;;;;;;;;;;;;;-0.76;67.66;100912.69;5031256;28;20384;-67
2023/01/21 00:14:22;;;;;;;;;;;;;;;-0.79;67.88;100911.19;5064114;28;20386;-66
2023/01/21 00:16:48;;;;;;;;;;;;;;;-0.80;67.17;100914.06;5063924;28;20066;-65
2023/01/21 00:19:13;;;;;;;;;;;;;;;-0.83;67.29;100906.34;5049290;28;20022;-65
2023/01/21 00:21:39;;;;;;;;;;;;;;;-0.87;67.56;100912.03;5063751;28;19963;-65
2023/01/21 00:24:05;;;;;;;;;;;;;;;-0.87;67.61;100903.16;5062955;28;20383;-65
2023/01/21 00:26:31;;;;;;;;;;;;;;;-0.87;67.49;100906.66;5063709;28;19935;-65
2023/01/21 00:28:58;;;;;;;;;;;;;;;-0.88;67.30;100915.75;5063623;28;19939;-66
2023/01/21 00:31:24;;;;;;;;;;;;;;;-0.89;67.26;100905.19;5064769;28;19928;-65
2023/01/21 00:33:51;;;;;;;;;;;;;;;-0.90;67.26;100903.50;5063172;28;20176;-65
2023/01/21 00:36:17;;;;;;;;;;;;;;;-0.91;67.29;100912.59;5065260;28;19932;-66
2023/01/21 00:38:43;;;;;;;;;;;;;;;-0.93;67.12;100919.97;5064809;28;19928;-66
2023/01/21 00:41:10;;;;;;;;;;;;;;;-0.97;66.65;100908.72;5063406;28;19932;-64
2023/01/21 00:43:36;;;;;;;;;;;;;;;-0.99;66.65;100913.44;5067276;28;19933;-65
2023/01/21 00:46:04;;;;;;;;;;;;;;;-1.01;66.71;100910.91;5063916;28;20019;-65
2023/01/21 00:48:30;;;;;;;;;;;;;;;-1.14;66.75;100899.88;5043712;28;19928;-65
2023/01/21 00:50:59;;;;;;;;;;;;;;;-1.03;66.83;100917.44;5061137;28;20066;-65
2023/01/21 00:53:25;;;;;;;;;;;;;;;-1.02;66.76;100911.94;5047020;28;19933;-65
2023/01/21 00:55:50;;;;;;;;;;;;;;;-1.00;66.99;100914.44;5047598;28;20023;-67
2023/01/21 00:58:16;;;;;;;;;;;;;;;-1.00;66.93;100919.81;5027579;28;20035;-68
2023/01/21 01:00:42;;;;;;;;;;;;;;;-1.00;66.55;100923.34;5059329;28;20205;-67
2023/01/21 01:03:09;;;;;;;;;;;;;;;-1.00;66.38;100919.81;5065277;28;19933;-67
2023/01/21 01:05:36;;;;;;;;;;;;;;;-1.05;66.04;100930.22;5064002;28;19929;-67
2023/01/21 01:08:01;;;;;;;;;;;;;;;-1.13;65.37;100931.06;5064719;28;19928;-67
2023/01/21 01:10:27;;;;;;;;;;;;;;;-1.20;65.92;100930.09;5061462;28;20292;-66
2023/01/21 01:12:53;;;;;;;;;;;;;;;-1.23;65.33;100944.66;5064191;28;20429;-66
2023/01/21 01:15:19;;;;;;;;;;;;;;;-1.26;65.59;100942.31;5064657;28;20406;-68
2023/01/21 01:17:45;;;;;;;;;;;;;;;-1.29;65.70;100935.44;5064644;28;20316;-67
2023/01/21 01:20:12;;;;;;;;;;;;;;;-1.27;65.94;100931.75;5065806;28;19928;-68
2023/01/21 01:22:38;;;;;;;;;;;;;;;-1.27;65.88;100946.03;5064510;28;19928;-67
2023/01/21 01:25:04;;;;;;;;;;;;;;;-1.25;65.96;100951.19;5067668;28;19935;-67
2023/01/21 01:27:29;;;;;;;;;;;;;;;-1.25;65.52;100945.84;5066159;28;19929;-68
2023/01/21 01:29:55;;;;;;;;;;;;;;;-1.27;65.30;100939.81;5066326;28;19940;-67
2023/01/21 01:32:21;;;;;;;;;;;;;;;-1.32;65.51;100943.84;5058701;28;19974;-67
2023/01/21 01:34:47;;;;;;;;;;;;;;;-1.34;65.02;100945.84;5025949;28;19935;-67
2023/01/21 01:37:14;;;;;;;;;;;;;;;-1.36;65.52;100947.00;5049628;28;19929;-67
2023/01/21 01:39:40;;;;;;;;;;;;;;;-1.40;65.05;100951.91;5065943;28;19929;-67
2023/01/21 01:42:08;;;;;;;;;;;;;;;-1.44;65.07;100953.22;5063868;28;19935;-67
2023/01/21 01:44:52;;;;;;;;;;;;;;;-1.48;65.38;100960.78;5064962;28;19932;-67
2023/01/21 01:47:19;;;;;;;;;;;;;;;-1.51;65.52;100977.19;5064365;28;19925;-67
2023/01/21 01:49:45;;;;;;;;;;;;;;;-1.54;65.11;100961.44;5066027;28;19974;-65
2023/01/21 01:52:13;;;;;;;;;;;;;;;-1.55;65.11;100972.34;5062807;28;19928;-65
2023/01/21 01:54:42;;;;;;;;;;;;;;;-1.59;65.12;100971.84;5069490;28;19928;-65
2023/01/21 01:57:10;;;;;;;;;;;;;;;-1.61;65.20;100982.72;5068045;28;19939;-65
2023/01/21 01:59:36;;;;;;;;;;;;;;;-1.61;65.15;100980.03;5064004;28;19971;-66
2023/01/21 02:02:03;;;;;;;;;;;;;;;-1.61;65.20;100981.91;5065697;28;19960;-65
2023/01/21 02:04:32;;;;;;;;;;;;;;;-1.63;64.85;100983.91;5061563;28;19971;-65
2023/01/21 02:06:58;;;;;;;;;;;;;;;-1.65;64.72;100986.75;5064336;28;20484;-66
2023/01/21 02:09:28;;;;;;;;;;;;;;;-1.68;64.63;100995.13;5062650;28;19936;-65
2023/01/21 02:11:55;;;;;;;;;;;;;;;-1.68;64.47;100991.59;5065190;28;20485;-65
2023/01/21 02:14:21;;;;;;;;;;;;;;;-1.69;64.53;100990.75;5063290;28;19928;-65
2023/01/21 02:16:58;;;;;;;;;;;;;;;-1.71;64.47;100990.09;5064464;28;19947;-64
2023/01/21 02:19:55;;;;;;;;;;;;;;;-1.72;64.32;100993.75;5065421;28;19981;-65
2023/01/21 02:22:23;;;;;;;;;;;;;;;-1.76;64.94;101005.81;5064617;28;20419;-65
2023/01/21 02:25:13;;;;;;;;;;;;;;;-1.76;64.89;100998.63;5064977;28;19935;-65
2023/01/21 02:27:46;;;;;;;;;;;;;;;-1.73;64.68;101010.84;5034519;28;19928;-64
2023/01/21 02:30:26;;;;;;;;;;;;;;;-1.77;64.47;101006.81;5026128;28;19928;-64
2023/01/21 02:33:12;;;;;;;;;;;;;;;-1.79;64.76;101012.38;5026981;28;19928;-65
2023/01/21 02:35:41;;;;;;;;;;;;;;;-1.77;64.60;101018.41;5060048;28;19928;-67
2023/01/21 02:38:11;;;;;;;;;;;;;;;-1.76;64.76;101013.88;5062587;28;20031;-67
2023/01/21 02:40:41;;;;;;;;;;;;;;;-1.76;64.56;101021.91;5064529;28;20311;-67
2023/01/21 02:43:11;;;;;;;;;;;;;;;-1.78;64.26;101026.59;5063331;28;19928;-67
2023/01/21 02:45:42;;;;;;;;;;;;;;;-1.83;64.22;101029.75;5064839;28;20392;-67
2023/01/21 02:48:12;;;;;;;;;;;;;;;-1.84;64.40;101032.63;5063374;28;19935;-67
2023/01/21 02:50:42;;;;;;;;;;;;;;;-1.87;64.17;101034.63;5064740;28;19928;-66
2023/01/21 02:53:18;;;;;;;;;;;;;;;-1.92;64.36;101039.63;5066299;28;19951;-66
2023/01/21 02:55:44;;;;;;;;;;;;;;;-1.95;64.20;101034.59;5073656;28;20083;-66
2023/01/21 02:58:14;;;;;;;;;;;;;;;-1.97;64.36;101031.25;5069506;28;20330;-67
2023/01/21 03:00:46;;;;;;;;;;;;;;;-1.93;64.11;101043.31;5061942;28;20071;-66
2023/01/21 03:03:34;;;;;;;;;;;;;;;-1.95;64.04;101042.63;5048320;28;20207;-65
2023/01/21 03:06:20;;;;;;;;;;;;;;;-1.97;63.99;101044.66;5049866;28;19932;-65
2023/01/21 03:08:50;;;;;;;;;;;;;;;-1.98;63.89;101048.31;5061441;28;19932;-65
2023/01/21 03:11:17;;;;;;;;;;;;;;;-1.97;63.93;101058.03;5068618;28;19932;-64
2023/01/21 03:19:19;;;;;;;;;;;;;;;-2.05;64.01;101061.53;5044470;28;19929;-65
2023/01/21 03:21:45;;;;;;;;;;;;;;;-2.06;63.97;101053.63;5026689;28;19995;-66
2023/01/21 03:24:13;;;;;;;;;;;;;;;-2.39;63.87;101014.13;5027241;28;19928;-67
2023/01/21 03:26:42;;;;;;;;;;;;;;;-2.12;63.80;101060.47;5056646;28;19934;-67
2023/01/21 03:29:10;;;;;;;;;;;;;;;-2.18;64.07;101058.44;5065481;28;20424;-67
2023/01/21 03:31:38;;;;;;;;;;;;;;;-2.20;63.90;101061.28;5068530;28;19928;-65
2023/01/21 03:34:07;;;;;;;;;;;;;;;-2.24;63.54;101062.59;5068487;28;19954;-67
2023/01/21 03:36:36;;;;;;;;;;;;;;;-2.30;63.72;101060.56;5064523;28;19937;-67
2023/01/21 03:39:06;;;;;;;;;;;;;;;-2.35;63.86;101065.53;5065902;28;19928;-67
2023/01/21 03:41:35;;;;;;;;;;;;;;;-2.39;63.78;101062.38;5068118;28;19949;-65
2023/01/21 03:44:01;;;;;;;;;;;;;;;-2.42;63.79;101059.97;5066101;28;20019;-65
2023/01/21 03:46:33;;;;;;;;;;;;;;;-2.45;63.75;101071.00;5066081;28;20036;-67
2023/01/21 03:49:03;;;;;;;;;;;;;;;-2.48;63.75;101068.66;5065871;28;19950;-67
2023/01/21 03:51:32;;;;;;;;;;;;;;;-2.50;63.85;101084.06;5067679;28;19928;-67
2023/01/21 03:53:58;;;;;;;;;;;;;;;-2.50;63.65;101081.38;5064368;28;19928;-67
2023/01/21 03:56:24;;;;;;;;;;;;;;;-2.52;63.88;101083.38;5065094;28;20225;-67
2023/01/21 03:58:51;;;;;;;;;;;;;;;-2.53;63.75;101081.69;5065834;28;20322;-67
2023/01/21 04:01:17;;;;;;;;;;;;;;;-2.55;63.63;101081.00;5066283;28;20047;-67
2023/01/21 04:03:43;;;;;;;;;;;;;;;-2.56;63.60;101085.50;5065237;28;20046;-67
2023/01/21 04:06:12;;;;;;;;;;;;;;;-2.54;63.46;101094.22;5068240;28;19929;-67
2023/01/21 04:08:37;;;;;;;;;;;;;;;-2.53;62.92;101105.81;5066393;28;19939;-65
2023/01/21 04:11:03;;;;;;;;;;;;;;;-2.54;63.11;101104.13;5063171;28;19928;-65
2023/01/21 04:13:29;;;;;;;;;;;;;;;-2.54;63.25;101099.59;5067234;28;19959;-65
2023/01/21 04:15:56;;;;;;;;;;;;;;;-2.56;63.11;101104.25;5066220;28;20474;-65
2023/01/21 04:18:22;;;;;;;;;;;;;;;-2.56;62.62;101117.66;5067248;28;19929;-66
2023/01/21 04:20:48;;;;;;;;;;;;;;;-2.60;62.37;101119.78;5064221;28;20331;-65
2023/01/21 04:23:13;;;;;;;;;;;;;;;-2.60;62.62;101105.59;5065891;28;20027;-66
2023/01/21 04:25:39;;;;;;;;;;;;;;;-2.60;62.45;101119.78;5063454;28;19954;-65
2023/01/21 04:28:05;;;;;;;;;;;;;;;-2.60;62.29;101124.34;5049842;28;19932;-66
2023/01/21 04:30:31;;;;;;;;;;;;;;;-2.62;62.34;101120.97;5044611;28;20437;-65
2023/01/21 04:32:58;;;;;;;;;;;;;;;-2.62;62.02;101124.47;5063885;28;19936;-65
2023/01/21 04:35:24;;;;;;;;;;;;;;;-2.64;62.15;101125.66;5062571;28;20319;-65
2023/01/21 04:37:50;;;;;;;;;;;;;;;-2.67;62.11;101133.97;5063050;28;19935;-66
2023/01/21 04:40:16;;;;;;;;;;;;;;;-2.69;62.21;101130.59;5080538;28;20403;-65
2023/01/21 04:42:42;;;;;;;;;;;;;;;-2.71;62.49;101142.31;5065795;28;19943;-66
2023/01/21 04:45:08;;;;;;;;;;;;;;;-2.72;62.44;101142.50;5066060;28;20343;-65
2023/01/21 04:47:34;;;;;;;;;;;;;;;-2.74;62.45;101152.47;5062377;28;20395;-65
2023/01/21 04:50:03;;;;;;;;;;;;;;;-2.77;62.74;101144.75;5064356;28;19935;-67
2023/01/21 04:52:29;;;;;;;;;;;;;;;-2.82;62.63;101153.25;5049834;28;19935;-68
2023/01/21 04:54:55;;;;;;;;;;;;;;;-2.85;62.47;101156.25;5065015;28;19928;-67
2023/01/21 04:57:20;;;;;;;;;;;;;;;-2.88;62.50;101159.22;5059764;28;20293;-67
2023/01/21 04:59:46;;;;;;;;;;;;;;;-2.94;62.73;101174.06;5047629;28;20411;-67
2023/01/21 05:02:12;;;;;;;;;;;;;;;-2.97;63.08;101162.81;5063718;28;19974;-66
2023/01/21 05:04:38;;;;;;;;;;;;;;;-3.00;63.02;101175.50;5046366;28;20019;-66
2023/01/21 05:07:06;;;;;;;;;;;;;;;-3.01;62.83;101176.50;5064821;28;20035;-66
2023/01/21 05:09:32;;;;;;;;;;;;;;;-3.03;63.04;101175.81;5064047;28;19928;-65
2023/01/21 05:11:57;;;;;;;;;;;;;;;-3.05;62.96;101183.16;5060601;28;20323;-64
2023/01/21 05:14:23;;;;;;;;;;;;;;;-3.08;63.02;101175.44;5065022;28;20362;-66
2023/01/21 05:16:49;;;;;;;;;;;;;;;-3.09;63.03;101179.09;5062035;28;20346;-66
2023/01/21 05:19:15;;;;;;;;;;;;;;;-3.10;63.22;101179.25;5047982;28;19951;-64
2023/01/21 05:21:40;;;;;;;;;;;;;;;-3.13;63.14;101185.72;5062384;28;19963;-66
2023/01/21 05:24:08;;;;;;;;;;;;;;;-3.15;63.17;101191.25;5064459;28;20296;-64
2023/01/21 05:26:34;;;;;;;;;;;;;;;-3.18;63.41;101188.88;5044817;28;19974;-65
2023/01/21 05:29:00;;;;;;;;;;;;;;;-3.21;63.58;101189.16;5037985;28;19982;-64
2023/01/21 05:31:26;;;;;;;;;;;;;;;-3.25;63.52;101193.13;5034414;28;19936;-64
2023/01/21 05:33:52;;;;;;;;;;;;;;;-3.27;63.64;101205.81;5045536;28;20410;-67
2023/01/21 05:36:18;;;;;;;;;;;;;;;-3.31;63.75;101202.59;5061707;28;20418;-67
2023/01/21 05:38:44;;;;;;;;;;;;;;;-3.35;63.66;101209.25;5049287;28;20439;-66
2023/01/21 05:41:11;;;;;;;;;;;;;;;-3.39;63.73;101217.69;5065443;28;19997;-67
2023/01/21 05:43:37;;;;;;;;;;;;;;;-3.41;63.81;101204.50;5065949;28;19932;-67
2023/01/21 05:46:02;;;;;;;;;;;;;;;-3.41;63.54;101220.53;5064156;28;20312;-67
2023/01/21 05:48:28;;;;;;;;;;;;;;;-3.47;63.61;101221.97;5061610;28;19928;-67
2023/01/21 05:50:54;;;;;;;;;;;;;;;-3.48;63.84;101222.09;5064559;28;19981;-66
2023/01/21 05:53:20;;;;;;;;;;;;;;;-3.46;64.13;101222.81;5062303;28;19974;-66
2023/01/21 05:55:49;;;;;;;;;;;;;;;-3.47;64.00;101223.78;5063977;28;20729;-67
2023/01/21 05:58:16;;;;;;;;;;;;;;;-3.46;63.84;101230.81;5064540;28;19928;-64
2023/01/21 06:00:43;;;;;;;;;;;;;;;-3.46;63.74;101230.81;5066999;28;19998;-64
2023/01/21 06:03:09;;;;;;;;;;;;;;;-3.46;63.49;101222.81;5063186;28;19932;-65
2023/01/21 06:05:35;;;;;;;;;;;;;;;-3.47;63.78;101239.84;5065067;28;19963;-64
2023/01/21 06:08:00;;;;;;;;;;;;;;;-3.44;63.54;101245.75;5042276;28;20411;-64
2023/01/21 06:10:26;;;;;;;;;;;;;;;-3.46;63.41;101239.72;5058887;28;19939;-64
2023/01/21 06:12:52;;;;;;;;;;;;;;;-3.44;63.78;101242.22;5023347;28;19974;-64
2023/01/21 06:15:19;;;;;;;;;;;;;;;-3.41;63.82;101241.94;5027104;28;19928;-64
2023/01/21 06:17:45;;;;;;;;;;;;;;;-3.38;63.60;101251.50;5048436;28;19951;-64
2023/01/21 06:20:11;;;;;;;;;;;;;;;-3.40;63.35;101253.47;5062343;28;20373;-66
2023/01/21 06:22:37;;;;;;;;;;;;;;;-3.40;62.87;101248.13;5065062;28;20141;-64
2023/01/21 06:25:03;;;;;;;;;;;;;;;-3.40;62.96;101253.47;5061869;28;20356;-65
2023/01/21 06:27:28;;;;;;;;;;;;;;;-3.61;62.90;101219.78;5045757;28;20323;-65
2023/01/21 06:29:54;;;;;;;;;;;;;;;-3.35;62.93;101261.91;5066600;28;19960;-65
2023/01/21 06:32:21;;;;;;;;;;;;;;;-3.34;62.98;101260.94;5068292;28;19929;-64
2023/01/21 06:34:47;;;;;;;;;;;;;;;-3.32;62.88;101250.91;5063804;28;20398;-65
2023/01/21 06:37:13;;;;;;;;;;;;;;;-3.34;62.82;101247.56;5068554;28;19998;-65
2023/01/21 06:39:39;;;;;;;;;;;;;;;-3.33;62.82;101257.25;5046850;28;20401;-65
2023/01/21 06:42:04;;;;;;;;;;;;;;;-3.30;62.99;101249.75;5050359;28;19928;-65
2023/01/21 06:44:30;;;;;;;;;;;;;;;-3.31;62.96;101256.09;5067461;28;19974;-64
2023/01/21 06:46:56;;;;;;;;;;;;;;;-3.31;62.83;101264.13;5053205;28;19940;-66
2023/01/21 06:49:23;;;;;;;;;;;;;;;-3.32;62.28;101273.16;5061001;28;20470;-64
2023/01/21 06:51:50;;;;;;;;;;;;;;;-3.36;62.57;101276.25;5049315;28;20022;-64
2023/01/21 06:54:16;;;;;;;;;;;;;;;-3.36;62.78;101271.75;5067961;28;19963;-64
2023/01/21 06:56:43;;;;;;;;;;;;;;;-3.35;62.89;101280.66;5067131;28;20433;-64
2023/01/21 06:59:08;;;;;;;;;;;;;;;-3.32;62.45;101286.53;5067953;28;19939;-64
2023/01/21 07:01:34;;;;;;;;;;;;;;;-3.32;62.62;101278.50;5046874;28;20271;-65
2023/01/21 07:04:00;;;;;;;;;;;;;;;-3.29;62.67;101286.22;5046378;28;19932;-65
2023/01/21 07:06:27;;;;;;;;;;;;;;;-3.25;62.20;101288.63;5053351;28;19928;-64
2023/01/21 07:08:53;;;;;;;;;;;;;;;-3.27;62.15;101291.44;5066398;28;19928;-64
2023/01/21 07:11:19;;;;;;;;;;;;;;;-3.24;62.27;101293.00;5064573;28;19974;-65
2023/01/21 07:13:45;;;;;;;;;;;;;;;-3.21;61.98;101285.47;5066738;28;20022;-65
2023/01/21 07:16:10;;;;;;;;;;;;;;;-3.19;62.05;101293.38;5063818;28;20422;-65
2023/01/21 07:18:36;;;;;;;;;;;;;;;-3.18;61.64;101292.38;5066448;28;19928;-64
2023/01/21 07:21:02;;;;;;;;;;;;;;;-3.16;61.48;101293.94;5067731;28;19935;-64
2023/01/21 07:23:30;;;;;;;;;;;;;;;-3.15;61.55;101294.75;5066326;28;20051;-64
2023/01/21 07:25:55;;;;;;;;;;;;;;;-3.17;61.13;101302.09;5048114;28;19951;-65
2023/01/21 07:28:21;;;;;;;;;;;;;;;-3.20;61.25;101313.09;5065332;28;20399;-65
2023/01/21 07:30:47;;;;;;;;;;;;;;;-3.20;61.33;101307.75;5049206;28;19932;-65
2023/01/21 07:33:13;;;;;;;;;;;;;;;-3.15;61.56;101316.16;5065525;28;19928;-64
2023/01/21 07:35:39;;;;;;;;;;;;;;;-3.13;61.26;101306.16;5068208;28;19929;-64
2023/01/21 07:38:05;;;;;;;;;;;;;;;-3.13;61.28;101315.03;5067405;28;20369;-65
2023/01/21 07:40:32;;;;;;;;;;;;;;;-3.14;60.77;101301.78;5068931;28;19974;-65
2023/01/21 07:42:59;;;;;;;;;;;;;;;-3.18;60.77;101314.66;5070481;28;19935;-64
2023/01/21 07:45:25;;;;;;;;;;;;;;;-3.18;60.84;101313.78;5069372;28;19963;-65
2023/01/21 07:47:51;;;;;;;;;;;;;;;-3.19;61.01;101315.66;5048485;28;19964;-64
2023/01/21 07:50:16;;;;;;;;;;;;;;;-3.18;60.94;101316.47;5047231;28;19936;-65
2023/01/21 07:52:42;;;;;;;;;;;;;;;-3.08;60.97;101314.59;5048355;28;20000;-64
2023/01/21 07:55:09;;;;;;;;;;;;;;;-3.01;60.75;101322.88;5066575;28;19929;-64
2023/01/21 07:57:34;;;;;;;;;;;;;;;-2.91;60.79;101323.66;5064443;28;20434;-64
2023/01/21 08:00:02;;;;;;;;;;;;;;;-2.82;60.52;101321.94;5064586;28;19935;-66
2023/01/21 08:02:37;;;;;;;;;;;;;;;-2.77;60.34;101324.16;5064858;28;19943;-66
2023/01/21 08:05:03;;;;;;;;;;;;;;;-2.71;60.36;101328.94;5066523;28;19928;-66
2023/01/21 08:07:29;;;;;;;;;;;;;;;-2.77;60.32;101314.31;5047289;28;19928;-66
2023/01/21 08:09:55;;;;;;;;;;;;;;;-2.71;59.88;101321.72;5065470;28;19932;-67
2023/01/21 08:12:20;;;;;;;;;;;;;;;-2.56;59.78;101342.66;5043031;28;19928;-69
2023/01/21 08:14:46;;;;;;;;;;;;;;;-2.64;59.90;101340.72;4724978;28;10000497;-67
2023/01/21 08:17:14;;;;;;;;;;;;;;;-2.56;59.70;101334.63;5080926;28;19928;-67
2023/01/21 08:19:40;;;;;;;;;;;;;;;-2.51;59.30;101336.84;5066412;28;20379;-66
2023/01/21 08:22:05;;;;;;;;;;;;;;;-2.52;59.29;101333.31;5060952;28;19935;-65
2023/01/21 08:24:31;;;;;;;;;;;;;;;-2.53;59.46;101331.63;5043289;28;19936;-65
2023/01/21 08:26:57;;;;;;;;;;;;;;;-2.48;59.31;101340.09;5044481;28;19932;-67
2023/01/21 08:29:24;;;;;;;;;;;;;;;-2.47;59.09;101336.41;5061304;28;19928;-66
2023/01/21 08:31:51;;;;;;;;;;;;;;;-2.42;59.22;101338.59;5042041;28;19935;-66
2023/01/21 08:34:18;;;;;;;;;;;;;;;-2.37;59.08;101339.00;5060184;28;19987;-66
2023/01/21 08:36:44;;;;;;;;;;;;;;;-2.32;58.71;101344.75;5063580;28;19974;-66
2023/01/21 08:39:11;;;;;;;;;;;;;;;-2.30;58.63;101347.28;5046000;28;19938;-66
2023/01/21 08:41:39;;;;;;;;;;;;;;;-2.26;58.62;101334.41;5063403;28;19939;-67
2023/01/21 08:44:05;;;;;;;;;;;;;;;-2.21;58.18;101343.69;5061998;28;19935;-67
2023/01/21 08:46:31;;;;;;;;;;;;;;;-2.25;58.05;101338.81;5060072;28;19928;-66
2023/01/21 08:48:57;;;;;;;;;;;;;;;-2.28;57.74;101353.34;5047875;28;19932;-67
2023/01/21 08:51:24;;;;;;;;;;;;;;;-2.32;57.64;101344.75;5062812;28;20421;-66
2023/01/21 08:53:50;;;;;;;;;;;;;;;-2.38;57.82;101353.41;5065067;28;19982;-67
2023/01/21 08:56:16;;;;;;;;;;;;;;;-2.42;57.77;101355.53;5064466;28;19936;-64
2023/01/21 08:58:42;;;;;;;;;;;;;;;-2.45;57.75;101337.09;5065973;28;19928;-64
2023/01/21 09:01:09;;;;;;;;;;;;;;;-2.48;57.61;101344.59;5063351;28;19939;-65
2023/01/21 09:03:35;;;;;;;;;;;;;;;-2.55;57.70;101348.88;5063254;28;20431;-64
2023/01/21 09:06:01;;;;;;;;;;;;;;;-2.67;57.64;101353.56;5061738;28;19928;-66
2023/01/21 09:08:28;;;;;;;;;;;;;;;-2.80;57.74;101346.75;5048006;28;19929;-64
2023/01/21 09:11:02;;;;;;;;;;;;;;;-2.74;58.07;101345.28;5064618;28;19928;-65
2023/01/21 09:13:27;;;;;;;;;;;;;;;-2.59;57.78;101334.94;5061505;28;19940;-64
2023/01/21 09:15:53;;;;;;;;;;;;;;;-2.47;57.85;101332.88;5065955;28;20105;-67
2023/01/21 09:18:19;;;;;;;;;;;;;;;-2.40;57.60;101330.44;5031926;28;19928;-64
2023/01/21 09:20:45;;;;;;;;;;;;;;;-2.40;57.49;101335.78;5064317;28;19954;-64
2023/01/21 09:23:23;;;;;;;;;;;;;;;-2.37;57.40;101340.84;5065714;28;19928;-64
2023/01/21 09:25:50;;;;;;;;;;;;;;;-2.33;57.36;101344.94;5028877;28;20324;-64
2023/01/21 09:28:16;;;;;;;;;;;;;;;-2.31;57.50;101341.06;5064062;28;20383;-65
2023/01/21 09:30:42;;;;;;;;;;;;;;;-2.25;57.32;101345.00;5063403;28;20403;-65
2023/01/21 09:33:08;;;;;;;;;;;;;;;-2.31;56.87;101335.72;5065769;28;19935;-65
2023/01/21 09:35:34;;;;;;;;;;;;;;;-2.42;56.90;101338.59;5064520;28;19928;-65
2023/01/21 09:37:59;;;;;;;;;;;;;;;-2.38;56.89;101333.81;5061670;28;19962;-65
2023/01/21 09:40:25;;;;;;;;;;;;;;;-2.36;56.96;101339.84;5064371;28;20027;-65
2023/01/21 09:42:52;;;;;;;;;;;;;;;-2.26;56.86;101340.63;5067366;28;20395;-64
2023/01/21 09:45:19;;;;;;;;;;;;;;;-2.15;56.88;101340.41;5064687;28;19928;-70
2023/01/21 09:47:47;;;;;;;;;;;;;;;-2.04;56.47;101347.38;5048905;28;19936;-70
2023/01/21 09:50:15;;;;;;;;;;;;;;;-1.91;56.13;101344.28;5063412;28;19928;-64
2023/01/21 09:52:41;;;;;;;;;;;;;;;-1.87;55.96;101339.47;4715158;27;9999808;-63
2023/01/21 09:55:13;;;;;;;;;;;;;;;-1.91;55.30;101349.66;5062360;28;20195;-67
2023/01/21 09:57:51;;;;;;;;;;;;;;;-2.06;55.45;101340.47;5055263;28;19940;-66
2023/01/21 10:00:25;;;;;;;;;;;;;;;-2.07;55.63;101344.16;5055797;28;19928;-65
2023/01/21 10:02:54;;;;;;;;;;;;;;;-2.03;55.53;101348.19;5062874;28;19943;-65
2023/01/21 10:05:35;;;;;;;;;;;;;;;-2.05;55.55;101339.47;5068181;28;19929;-64
2023/01/21 10:08:08;;;;;;;;;;;;;;;-2.07;55.33;101341.47;5055555;28;19964;-66
2023/01/21 10:10:39;;;;;;;;;;;;;;;-2.01;55.67;101338.19;5066250;28;19928;-69
2023/01/21 10:13:17;;;;;;;;;;;;;;;-1.90;55.35;101331.75;5068768;28;19943;-70
2023/01/21 10:15:48;;;;;;;;;;;;;;;-1.92;55.03;101329.19;5068494;28;19935;-66
2023/01/21 10:18:17;;;;;;;;;;;;;;;-1.93;54.70;101332.06;5067215;28;20027;-69
2023/01/21 10:20:46;;;;;;;;;;;;;;;-1.90;55.25;101323.69;5070528;28;19929;-68
2023/01/21 10:23:15;;;;;;;;;;;;;;;-1.82;55.42;101322.91;5064100;28;19928;-70
2023/01/21 10:25:45;;;;;;;;;;;;;;;-1.77;54.97;101325.97;5070313;28;19938;-63
2023/01/21 10:28:13;;;;;;;;;;;;;;;-1.94;54.79;101317.78;5067891;28;19928;-66
2023/01/21 10:30:42;;;;;;;;;;;;;;;-2.01;55.12;101320.25;5066239;28;20438;-64
2023/01/21 10:33:15;;;;;;;;;;;;;;;-2.04;55.11;101319.72;5067356;28;19959;-67
2023/01/21 10:35:47;;;;;;;;;;;;;;;-2.04;55.50;101325.06;5050497;28;19982;-66
2023/01/21 10:38:19;;;;;;;;;;;;;;;-1.90;55.80;101310.28;5066403;28;19929;-66
2023/01/21 10:40:48;;;;;;;;;;;;;;;-1.78;55.74;101311.72;5066698;28;20403;-66
2023/01/21 10:43:23;;;;;;;;;;;;;;;-1.80;55.81;101307.50;5070061;28;20036;-66
2023/01/21 10:45:54;;;;;;;;;;;;;;;-1.78;56.18;101308.19;5067449;28;20395;-66
2023/01/21 10:48:26;;;;;;;;;;;;;;;-1.73;56.20;101311.25;5067290;28;19985;-64
2023/01/21 10:50:55;;;;;;;;;;;;;;;-1.77;56.47;101310.72;5068955;28;19991;-65
2023/01/21 10:53:26;;;;;;;;;;;;;;;-1.67;56.87;101316.00;5069793;28;20353;-64
2023/01/21 10:56:01;;;;;;;;;;;;;;;-1.60;57.07;101314.34;5053278;28;20019;-64
2023/01/21 10:58:29;;;;;;;;;;;;;;;-1.64;57.22;101306.78;5069575;28;20479;-66
2023/01/21 11:00:57;;;;;;;;;;;;;;;-1.70;57.36;101305.59;5068800;28;20427;-66
2023/01/21 11:03:29;;;;;;;;;;;;;;;-1.74;57.65;101307.72;5069529;28;20245;-64
2023/01/21 11:05:56;;;;;;;;;;;;;;;-1.80;57.91;101310.19;5072508;28;19983;-66
2023/01/21 11:08:24;;;;;;;;;;;;;;;-1.83;57.88;101308.66;5067833;28;19974;-66
2023/01/21 11:10:54;;;;;;;;;;;;;;;-1.86;58.07;101312.50;5069665;28;20005;-67
2023/01/21 11:13:21;;;;;;;;;;;;;;;-1.80;58.47;101307.50;5068656;28;19928;-67
2023/01/21 11:15:49;;;;;;;;;;;;;;;-1.82;58.44;101299.63;5067371;28;19928;-66
2023/01/21 11:18:25;;;;;;;;;;;;;;;-1.81;58.57;101303.16;5071400;28;19934;-64
2023/01/21 11:20:54;;;;;;;;;;;;;;;-1.89;58.50;101296.72;5067625;28;19972;-64
2023/01/21 11:23:26;;;;;;;;;;;;;;;-1.89;58.52;101296.72;5066473;28;19928;-66
2023/01/21 11:25:58;;;;;;;;;;;;;;;-1.96;58.51;101300.16;5068166;28;19951;-66
2023/01/21 11:28:28;;;;;;;;;;;;;;;-2.07;58.78;101303.94;5067360;28;19971;-66
2023/01/21 11:31:02;;;;;;;;;;;;;;;-2.12;58.67;101309.75;4703345;27;9999883;-66
2023/01/21 11:33:28;;;;;;;;;;;;;;;-2.14;58.86;101314.44;5052595;28;19955;-66
2023/01/21 11:35:57;;;;;;;;;;;;;;;-2.12;59.06;101316.97;5063070;28;20423;-66
2023/01/21 11:38:25;;;;;;;;;;;;;;;-2.15;59.11;101312.75;5062571;28;20445;-66
2023/01/21 11:41:12;;;;;;;;;;;;;;;-2.17;59.18;101320.09;5062897;28;19935;-66
2023/01/21 11:43:40;;;;;;;;;;;;;;;-2.14;59.07;101311.75;5064999;28;19971;-66
2023/01/21 11:46:32;;;;;;;;;;;;;;;-2.10;59.12;101314.97;5045778;28;20387;-66
2023/01/21 11:49:16;;;;;;;;;;;;;;;-2.04;59.23;101308.97;4680553;28;10000367;-64
2023/01/21 11:51:45;;;;;;;;;;;;;;;-1.98;59.22;101313.75;5070652;28;19928;-65
2023/01/21 11:54:12;;;;;;;;;;;;;;;-1.97;59.17;101314.56;5048874;28;20041;-67
2023/01/21 11:56:38;;;;;;;;;;;;;;;-2.05;59.07;101308.16;5067004;28;20380;-66
2023/01/21 11:59:10;;;;;;;;;;;;;;;-2.14;58.97;101311.75;5065438;28;19928;-67
2023/01/21 12:01:36;;;;;;;;;;;;;;;-2.23;59.14;101305.47;5057602;28;19935;-67
2023/01/21 12:04:02;;;;;;;;;;;;;;;-2.23;59.39;101310.00;5047609;28;20312;-66
2023/01/21 12:06:29;;;;;;;;;;;;;;;-2.22;59.02;101314.38;5060710;28;19933;-67
2023/01/21 12:09:01;;;;;;;;;;;;;;;-2.30;59.01;101309.78;5065485;28;20315;-69
2023/01/21 12:11:29;;;;;;;;;;;;;;;-2.40;59.29;101309.84;5035016;28;20403;-71
2023/01/21 12:13:59;;;;;;;;;;;;;;;-2.49;59.40;101302.72;5075829;28;19934;-70
2023/01/21 12:16:27;;;;;;;;;;;;;;;-2.54;59.59;101302.34;5065574;28;19928;-67
2023/01/21 12:19:15;;;;;;;;;;;;;;;-2.54;59.41;101299.66;5065127;28;20018;-70
2023/01/21 12:21:50;;;;;;;;;;;;;;;-2.57;59.62;101304.31;5045935;28;19929;-72
2023/01/21 12:24:23;;;;;;;;;;;;;;;-2.60;59.71;101309.97;5066192;28;20661;-71
2023/01/21 12:26:53;;;;;;;;;;;;;;;-2.62;59.84;101308.44;5063772;28;20762;-69
2023/01/21 12:29:27;;;;;;;;;;;;;;;-2.79;59.82;101286.00;5068242;28;19935;-66
2023/01/21 12:31:57;;;;;;;;;;;;;;;-2.66;59.90;101321.28;5049783;28;19968;-72
2023/01/21 12:34:27;;;;;;;;;;;;;;;-2.65;59.92;101316.78;5063356;28;20419;-72
2023/01/21 12:36:57;;;;;;;;;;;;;;;-2.62;59.97;101316.47;5049340;28;20472;-71
2023/01/21 12:39:28;;;;;;;;;;;;;;;-2.64;60.13;101321.16;5064743;28;19978;-69
2023/01/21 12:42:01;;;;;;;;;;;;;;;-2.73;59.90;101317.53;5052902;28;19928;-72
2023/01/21 12:44:30;;;;;;;;;;;;;;;-2.77;59.88;101316.13;5067875;28;20400;-72
2023/01/21 12:47:00;;;;;;;;;;;;;;;-2.93;59.90;101298.06;5067317;28;20031;-69